Laemchabang, Thailand

8:18 PM ICT on May 28, 2015 (GMT +0700)
Pattaya | | Change Station
CLOSE
Current Station
Personal Weather Station
Location: Pattaya, CHONBURI
Elevation: 141 ft
Nearby Weather Stations

Elev 141 ft 12.93 °N, 100.91 °E | Updated 3 minutes ago

Mostly Cloudy
Mostly Cloudy
84.7 °F
Feels Like 96 °F
N
0.0
Wind Variable Wind from SSE
Gusts 1.0 mph

Today
High -- | Low -- °F
--% Chance of Precip.
Yesterday
High -- | Low -- °F
Precip. -- in
5:49 AM 6:38 PM
Waxing Gibbous, 76% visible
Pressure 29.71 in
Visibility 6.2 miles
Clouds Few 2500 ft
Mostly Cloudy 30000 ft
Heat Index 96 °F
Dew Point 78 °F
Humidity 80%
Rainfall 0.00 in
Snow Depth Not available.
UV 0 out of 12
Pollen Not available.
Air Quality Not available.
Flu Activity Not available.
METAR VTBS 281300Z 20008KT 9999 FEW025 BKN300 31/23 Q1006 NOSIG

More Conditions Fewer Conditions

Pressure 29.71 in
Visibility 6.2 miles
Clouds Few 2500 ft
Mostly Cloudy 30000 ft
Heat Index 96 °F
Dew Point 78 °F
Humidity 80%
Rainfall 0.00 in
Snow Depth Not available.
UV 0 out of 12
Pollen Not available.
Air Quality Not available.
Flu Activity Not available.
METAR VTBS 281300Z 20008KT 9999 FEW025 BKN300 31/23 Q1006 NOSIG

More Conditions Fewer Conditions

10-Day Weather Forecast

Almanac

Astronomy

May. 28, 2015 Rise Set
Actual Time
Civil Twilight
Nautical Twilight
Astronomical Twilight
Moon
Length of Visible Light
Length of Day
Tomorrow will be .
, % of the Moon is Illuminated

Today's Extremes

Country Highs Country Lows

Community

WunderPhotos

Upload Photos

1,824,970 photos uploaded!

WunderBlogs® & News

Nearby

Air Quality

  Air Quality AQ Index Pollutant
Not available.

Snow Depth

Station Depth Elevation

Earthquake Activity

City Distance Mag. Time & Date
Minimum magnitude displayed is 2.5.

Coastal Water Temperatures

Place Temperature

Stations

Nearby Weather Stations

Station Location Temp. Windchill Dew Point Humidity Wind Precip. Elev Updated Type